sensor_id;sensor_type;location;lat;lon;timestamp;P1;durP1;ratioP1;P2;durP2;ratioP2
38025;SDS011;23836;48.430;9.888;2022-07-10T00:06:11;5.35;;;2.83;;
38025;SDS011;23836;48.430;9.888;2022-07-10T00:16:49;4.82;;;2.55;;
38025;SDS011;23836;48.430;9.888;2022-07-10T00:21:41;4.57;;;2.55;;
38025;SDS011;23836;48.430;9.888;2022-07-10T00:32:18;5.90;;;2.85;;
38025;SDS011;23836;48.430;9.888;2022-07-10T00:37:17;3.83;;;2.60;;
38025;SDS011;23836;48.430;9.888;2022-07-10T00:47:12;5.03;;;2.78;;
38025;SDS011;23836;48.430;9.888;2022-07-10T00:52:06;6.63;;;3.38;;
38025;SDS011;23836;48.430;9.888;2022-07-10T00:56:58;5.07;;;3.10;;
38025;SDS011;23836;48.430;9.888;2022-07-10T01:01:50;4.60;;;3.08;;
38025;SDS011;23836;48.430;9.888;2022-07-10T01:06:42;3.47;;;3.13;;
38025;SDS011;23836;48.430;9.888;2022-07-10T01:11:34;3.00;;;2.70;;
38025;SDS011;23836;48.430;9.888;2022-07-10T01:16:27;4.43;;;3.20;;
38025;SDS011;23836;48.430;9.888;2022-07-10T01:26:17;4.13;;;3.28;;
38025;SDS011;23836;48.430;9.888;2022-07-10T01:31:10;4.32;;;2.83;;
38025;SDS011;23836;48.430;9.888;2022-07-10T01:36:02;6.30;;;3.47;;
38025;SDS011;23836;48.430;9.888;2022-07-10T01:40:55;3.92;;;3.30;;
38025;SDS011;23836;48.430;9.888;2022-07-10T01:45:46;3.88;;;3.05;;
38025;SDS011;23836;48.430;9.888;2022-07-10T01:50:37;3.90;;;2.58;;
38025;SDS011;23836;48.430;9.888;2022-07-10T01:55:31;4.85;;;3.38;;
38025;SDS011;23836;48.430;9.888;2022-07-10T02:00:22;4.25;;;3.00;;
38025;SDS011;23836;48.430;9.888;2022-07-10T02:05:14;6.88;;;3.40;;
38025;SDS011;23836;48.430;9.888;2022-07-10T02:10:06;4.00;;;3.30;;
38025;SDS011;23836;48.430;9.888;2022-07-10T02:14:59;9.73;;;3.70;;
38025;SDS011;23836;48.430;9.888;2022-07-10T02:19:52;8.23;;;3.40;;
38025;SDS011;23836;48.430;9.888;2022-07-10T02:24:42;4.53;;;3.20;;
38025;SDS011;23836;48.430;9.888;2022-07-10T02:29:34;6.47;;;3.42;;
38025;SDS011;23836;48.430;9.888;2022-07-10T02:34:26;4.75;;;3.22;;
38025;SDS011;23836;48.430;9.888;2022-07-10T02:39:18;7.50;;;4.32;;
38025;SDS011;23836;48.430;9.888;2022-07-10T02:44:12;5.32;;;3.47;;
38025;SDS011;23836;48.430;9.888;2022-07-10T02:49:03;7.55;;;4.45;;
38025;SDS011;23836;48.430;9.888;2022-07-10T02:53:58;3.85;;;3.22;;
38025;SDS011;23836;48.430;9.888;2022-07-10T02:58:49;7.75;;;4.28;;
38025;SDS011;23836;48.430;9.888;2022-07-10T03:03:42;5.35;;;3.28;;
38025;SDS011;23836;48.430;9.888;2022-07-10T03:08:35;7.22;;;3.15;;
38025;SDS011;23836;48.430;9.888;2022-07-10T03:13:26;3.22;;;2.60;;
38025;SDS011;23836;48.430;9.888;2022-07-10T03:18:17;4.78;;;3.30;;
38025;SDS011;23836;48.430;9.888;2022-07-10T03:23:08;7.68;;;4.18;;
38025;SDS011;23836;48.430;9.888;2022-07-10T03:28:00;6.45;;;4.82;;
38025;SDS011;23836;48.430;9.888;2022-07-10T03:32:51;5.40;;;4.75;;
38025;SDS011;23836;48.430;9.888;2022-07-10T03:37:43;5.03;;;3.97;;
38025;SDS011;23836;48.430;9.888;2022-07-10T03:42:35;8.82;;;4.78;;
38025;SDS011;23836;48.430;9.888;2022-07-10T03:47:28;7.93;;;4.22;;
38025;SDS011;23836;48.430;9.888;2022-07-10T03:52:26;7.32;;;3.60;;
38025;SDS011;23836;48.430;9.888;2022-07-10T03:57:18;5.47;;;4.15;;
38025;SDS011;23836;48.430;9.888;2022-07-10T04:02:28;4.38;;;3.38;;
38025;SDS011;23836;48.430;9.888;2022-07-10T04:07:19;4.85;;;3.83;;
38025;SDS011;23836;48.430;9.888;2022-07-10T04:12:12;5.90;;;3.85;;
38025;SDS011;23836;48.430;9.888;2022-07-10T04:17:04;9.68;;;4.80;;
38025;SDS011;23836;48.430;9.888;2022-07-10T04:21:56;5.72;;;4.53;;
38025;SDS011;23836;48.430;9.888;2022-07-10T04:26:48;5.75;;;3.97;;
38025;SDS011;23836;48.430;9.888;2022-07-10T04:31:41;11.88;;;4.60;;
38025;SDS011;23836;48.430;9.888;2022-07-10T04:36:32;10.95;;;5.22;;
38025;SDS011;23836;48.430;9.888;2022-07-10T04:41:24;7.88;;;4.80;;
38025;SDS011;23836;48.430;9.888;2022-07-10T04:46:15;6.60;;;4.10;;
38025;SDS011;23836;48.430;9.888;2022-07-10T04:51:07;6.43;;;4.25;;
38025;SDS011;23836;48.430;9.888;2022-07-10T04:55:58;13.98;;;5.03;;
38025;SDS011;23836;48.430;9.888;2022-07-10T05:00:50;8.13;;;4.95;;
38025;SDS011;23836;48.430;9.888;2022-07-10T05:05:41;10.35;;;4.88;;
38025;SDS011;23836;48.430;9.888;2022-07-10T05:10:33;5.50;;;3.45;;
38025;SDS011;23836;48.430;9.888;2022-07-10T05:15:26;8.57;;;4.13;;
38025;SDS011;23836;48.430;9.888;2022-07-10T05:20:18;4.22;;;3.28;;
38025;SDS011;23836;48.430;9.888;2022-07-10T05:25:10;4.85;;;3.53;;
38025;SDS011;23836;48.430;9.888;2022-07-10T05:30:01;5.65;;;3.83;;
38025;SDS011;23836;48.430;9.888;2022-07-10T05:34:54;6.45;;;3.97;;
38025;SDS011;23836;48.430;9.888;2022-07-10T05:39:47;13.63;;;4.00;;
38025;SDS011;23836;48.430;9.888;2022-07-10T05:44:39;7.95;;;4.30;;
38025;SDS011;23836;48.430;9.888;2022-07-10T05:49:31;5.65;;;3.47;;
38025;SDS011;23836;48.430;9.888;2022-07-10T06:40:37;7.03;;;3.55;;
38025;SDS011;23836;48.430;9.888;2022-07-10T23:52:57;2.20;;;1.50;;
38025;SDS011;23836;48.430;9.888;2022-07-10T23:57:51;2.92;;;1.67;;
